createdAt,value
2019-02-16T00:02:23.699Z,99.90
2019-02-16T00:04:52.163Z,99.90
2019-02-16T00:07:20.569Z,99.90
2019-02-16T00:09:48.972Z,99.90
2019-02-16T00:12:17.370Z,99.90
2019-02-16T00:14:45.868Z,99.90
2019-02-16T00:17:15.204Z,99.90
2019-02-16T00:19:43.608Z,99.90
2019-02-16T00:22:12.012Z,99.90
2019-02-16T00:24:40.408Z,99.90
2019-02-16T00:27:08.845Z,99.90
2019-02-16T00:29:37.248Z,99.90
2019-02-16T00:32:05.649Z,99.90
2019-02-16T00:34:34.044Z,99.90
2019-02-16T00:37:02.453Z,99.90
2019-02-16T00:39:30.880Z,99.90
2019-02-16T00:41:59.276Z,99.90
2019-02-16T00:44:27.674Z,99.90
2019-02-16T00:46:56.077Z,99.90
2019-02-16T00:49:24.550Z,99.90
2019-02-16T00:51:53.021Z,99.90
2019-02-16T00:54:21.483Z,99.90
2019-02-16T00:56:49.820Z,99.90
2019-02-16T00:59:18.225Z,99.90
2019-02-16T01:01:46.683Z,99.90
2019-02-16T01:04:15.171Z,99.90
2019-02-16T01:06:43.572Z,99.90
2019-02-16T01:09:11.974Z,99.90
2019-02-16T01:11:40.536Z,99.90
2019-02-16T01:14:08.926Z,99.90
2019-02-16T01:16:37.416Z,99.90
2019-02-16T01:19:06.657Z,99.90
2019-02-16T01:21:35.054Z,99.90
2019-02-16T01:24:03.448Z,99.90
2019-02-16T01:26:31.849Z,99.90
2019-02-16T01:29:00.278Z,99.90
2019-02-16T01:31:28.713Z,99.90
2019-02-16T01:33:57.133Z,99.90
2019-02-16T01:36:25.565Z,99.90
2019-02-16T01:38:53.996Z,99.90
2019-02-16T01:41:22.437Z,99.90
2019-02-16T01:43:50.854Z,99.90
2019-02-16T01:46:19.277Z,99.90
2019-02-16T01:48:47.666Z,99.90
2019-02-16T01:51:16.056Z,99.90
2019-02-16T01:53:44.521Z,99.90
2019-02-16T01:56:12.953Z,99.90
2019-02-16T01:58:41.373Z,99.90
2019-02-16T02:01:09.802Z,99.90
2019-02-16T02:03:38.226Z,99.90
2019-02-16T02:06:06.690Z,99.90
2019-02-16T02:08:35.112Z,99.90
2019-02-16T02:11:04.493Z,99.90
2019-02-16T02:13:33.061Z,99.90
2019-02-16T02:16:01.479Z,99.90
2019-02-16T02:18:29.917Z,99.90
2019-02-16T02:20:59.314Z,99.90
2019-02-16T02:23:27.798Z,99.90
2019-02-16T02:25:56.281Z,99.90
2019-02-16T02:28:24.703Z,99.90
2019-02-16T02:30:53.157Z,99.90
2019-02-16T02:33:21.589Z,99.90
2019-02-16T02:35:50.000Z,99.90
2019-02-16T02:38:18.422Z,99.90
2019-02-16T02:40:47.280Z,99.90
2019-02-16T02:43:15.827Z,99.90
2019-02-16T02:45:44.255Z,99.90
2019-02-16T02:48:12.676Z,99.90
2019-02-16T02:50:41.099Z,99.90
2019-02-16T02:53:09.517Z,99.90
2019-02-16T02:55:37.976Z,99.90
2019-02-16T02:58:06.462Z,99.90
2019-02-16T03:00:34.887Z,99.90
2019-02-16T03:03:03.314Z,99.90
2019-02-16T03:05:31.731Z,99.90
2019-02-16T03:08:00.175Z,99.90
2019-02-16T03:10:28.614Z,99.90
2019-02-16T03:12:57.033Z,99.90
2019-02-16T03:15:25.453Z,99.90
2019-02-16T03:17:53.888Z,99.90
2019-02-16T03:20:22.344Z,99.90
2019-02-16T03:23:17.520Z,99.90
2019-02-16T03:25:55.159Z,99.90
2019-02-16T03:28:32.733Z,99.90
2019-02-16T03:31:19.616Z,99.90
2019-02-16T03:33:56.814Z,99.90
2019-02-16T03:36:46.446Z,99.90
2019-02-16T03:39:16.012Z,99.90
2019-02-16T03:41:44.432Z,99.90
2019-02-16T03:44:12.853Z,99.90
2019-02-16T03:46:41.288Z,99.90
2019-02-16T03:49:09.761Z,99.90
2019-02-16T03:51:38.193Z,99.90
2019-02-16T03:54:06.618Z,99.90
2019-02-16T03:56:35.037Z,99.90
2019-02-16T03:59:03.472Z,99.90
2019-02-16T04:01:31.930Z,99.90
2019-02-16T04:04:00.349Z,99.90
2019-02-16T04:06:28.766Z,99.90
2019-02-16T04:08:57.205Z,99.90
2019-02-16T04:11:25.627Z,99.90
2019-02-16T04:13:54.090Z,99.90
2019-02-16T04:16:22.518Z,99.90
2019-02-16T04:18:50.939Z,99.90
2019-02-16T04:21:19.367Z,99.90
2019-02-16T04:23:47.791Z,99.90
2019-02-16T04:26:16.272Z,99.90
2019-02-16T04:28:44.678Z,99.90
2019-02-16T04:31:13.150Z,99.90
2019-02-16T04:33:41.545Z,99.90
2019-02-16T04:36:09.947Z,99.90
2019-02-16T04:38:38.372Z,99.90
2019-02-16T04:41:06.852Z,99.90
2019-02-16T04:43:35.245Z,99.90
2019-02-16T04:46:03.716Z,99.90
2019-02-16T04:48:32.110Z,99.90
2019-02-16T04:51:00.536Z,99.90
2019-02-16T04:53:28.934Z,99.90
2019-02-16T04:55:57.397Z,99.90
2019-02-16T04:58:26.335Z,99.90
2019-02-16T05:00:54.719Z,99.90
2019-02-16T05:03:23.209Z,99.90
2019-02-16T05:05:51.613Z,99.90
2019-02-16T05:08:20.011Z,99.90
2019-02-16T05:10:48.413Z,99.90
2019-02-16T05:13:16.815Z,99.90
2019-02-16T05:15:45.235Z,99.90
2019-02-16T05:18:13.631Z,99.90
2019-02-16T05:20:42.031Z,99.90
2019-02-16T05:23:10.433Z,99.90
2019-02-16T05:25:38.828Z,99.90
2019-02-16T05:28:07.248Z,99.90
2019-02-16T05:30:35.648Z,99.90
2019-02-16T05:33:04.046Z,99.90
2019-02-16T05:35:32.449Z,99.90
2019-02-16T05:38:00.856Z,99.90
2019-02-16T05:40:29.289Z,99.90
2019-02-16T05:42:57.739Z,99.90
2019-02-16T05:45:26.142Z,99.90
2019-02-16T05:47:54.540Z,99.90
2019-02-16T05:50:22.952Z,99.90
2019-02-16T05:52:54.526Z,99.90
2019-02-16T05:55:21.494Z,99.90
2019-02-16T05:57:52.832Z,99.90
2019-02-16T06:00:22.876Z,99.90
2019-02-16T06:02:51.344Z,99.90
2019-02-16T06:05:19.785Z,99.90
2019-02-16T06:07:48.180Z,99.90
2019-02-16T06:10:16.574Z,99.90
2019-02-16T06:12:44.970Z,99.90
2019-02-16T06:15:13.365Z,99.90
2019-02-16T06:17:41.789Z,99.90
2019-02-16T06:20:10.190Z,99.90
2019-02-16T06:22:38.592Z,99.90
2019-02-16T06:25:07.000Z,99.90
2019-02-16T06:27:35.383Z,99.90
2019-02-16T06:30:04.648Z,99.90
2019-02-16T06:32:33.040Z,99.90
2019-02-16T06:35:06.013Z,99.90
2019-02-16T06:37:34.416Z,99.90
2019-02-16T06:40:02.813Z,99.90
2019-02-16T06:42:31.240Z,99.90
2019-02-16T06:44:59.639Z,99.90
2019-02-16T06:47:28.032Z,99.90
2019-02-16T06:49:56.444Z,99.90
2019-02-16T06:52:24.847Z,99.90
2019-02-16T06:54:53.266Z,99.90
2019-02-16T06:57:23.297Z,99.90
2019-02-16T06:59:51.688Z,99.90
2019-02-16T07:02:20.665Z,99.90
2019-02-16T07:04:49.063Z,99.90
2019-02-16T07:07:17.494Z,99.90
2019-02-16T07:09:45.888Z,99.90
2019-02-16T07:12:14.343Z,99.90
2019-02-16T07:14:42.753Z,99.90
2019-02-16T07:17:27.876Z,99.90
2019-02-16T07:19:56.354Z,99.90
2019-02-16T07:22:24.748Z,99.90
2019-02-16T07:24:53.259Z,99.90
2019-02-16T07:27:21.657Z,99.90
2019-02-16T07:29:50.056Z,99.90
2019-02-16T07:32:18.460Z,99.90
2019-02-16T07:34:46.851Z,99.90
2019-02-16T07:37:15.276Z,99.90
2019-02-16T07:39:43.743Z,99.90
2019-02-16T07:42:12.131Z,99.70
2019-02-16T07:44:45.370Z,99.60
2019-02-16T07:47:15.388Z,99.40
2019-02-16T07:49:51.241Z,99.20
2019-02-16T07:52:30.045Z,99.00
2019-02-16T07:55:03.086Z,98.90
2019-02-16T07:57:35.861Z,98.80
2019-02-16T08:00:13.665Z,98.70
2019-02-16T08:02:58.753Z,98.50
2019-02-16T08:05:37.840Z,98.30
2019-02-16T08:11:05.129Z,98.30
2019-02-16T08:13:38.067Z,97.40
2019-02-16T08:16:17.392Z,97.00
2019-02-16T08:18:50.132Z,96.80
2019-02-16T08:21:36.664Z,96.00
2019-02-16T08:24:09.444Z,95.10
2019-02-16T08:26:48.600Z,92.50
2019-02-16T08:29:18.634Z,91.30
2019-02-16T08:31:57.720Z,91.50
2019-02-16T08:34:27.765Z,90.70
2019-02-16T08:36:57.804Z,90.80
2019-02-16T08:39:44.114Z,91.20
2019-02-16T08:42:14.146Z,89.80
2019-02-16T08:44:44.186Z,89.10
2019-02-16T08:47:26.277Z,83.40
2019-02-16T08:49:56.365Z,83.00
2019-02-16T08:52:32.175Z,84.20
2019-02-16T08:55:05.066Z,84.20
2019-02-16T08:57:50.076Z,83.60
2019-02-16T09:00:38.418Z,83.30
2019-02-16T09:03:23.486Z,78.70
2019-02-16T09:05:56.360Z,74.60
2019-02-16T09:08:32.145Z,75.30
2019-02-16T09:11:18.677Z,73.10
2019-02-16T09:13:51.545Z,74.80
2019-02-16T09:16:38.374Z,78.10
2019-02-16T09:19:26.498Z,76.40
2019-02-16T09:22:05.399Z,74.40
2019-02-16T09:24:35.463Z,74.70
2019-02-16T09:27:05.575Z,75.20
2019-02-16T09:29:41.461Z,73.30
2019-02-16T09:32:13.155Z,75.00
2019-02-16T09:34:45.937Z,73.50
2019-02-16T09:37:32.490Z,71.60
2019-02-16T09:40:02.563Z,73.50
2019-02-16T09:42:32.667Z,70.20
2019-02-16T09:45:17.961Z,70.60
2019-02-16T09:48:03.302Z,70.70
2019-02-16T09:50:36.184Z,67.40
2019-02-16T09:53:24.284Z,65.90
2019-02-16T09:56:06.246Z,65.40
2019-02-16T09:58:48.373Z,66.80
2019-02-16T10:01:27.094Z,65.50
2019-02-16T10:03:57.216Z,67.60
2019-02-16T10:06:39.408Z,64.00
2019-02-16T10:09:12.181Z,66.00
2019-02-16T10:11:44.712Z,64.60
2019-02-16T10:14:17.056Z,64.60
2019-02-16T10:16:49.846Z,64.30
2019-02-16T10:19:19.958Z,67.10
2019-02-16T10:22:06.579Z,69.60
2019-02-16T10:24:53.128Z,70.50
2019-02-16T10:27:38.502Z,71.60
2019-02-16T10:30:25.272Z,72.70
2019-02-16T10:32:55.345Z,73.80
2019-02-16T10:35:42.074Z,73.20
2019-02-16T10:38:12.152Z,72.90
2019-02-16T10:40:58.460Z,72.90
2019-02-16T10:43:43.664Z,73.10
2019-02-16T10:46:21.401Z,73.80
2019-02-16T10:48:53.989Z,73.60
2019-02-16T10:51:29.802Z,74.20
2019-02-16T10:54:08.558Z,74.40
2019-02-16T10:56:38.691Z,73.80
2019-02-16T10:59:14.930Z,74.00
2019-02-16T11:01:59.968Z,73.50
2019-02-16T11:04:39.239Z,71.90
2019-02-16T11:07:09.277Z,72.00
2019-02-16T11:09:42.141Z,70.50
2019-02-16T11:12:28.385Z,70.50
2019-02-16T11:15:13.787Z,71.20
2019-02-16T11:17:46.578Z,69.80
2019-02-16T11:20:16.612Z,70.20
2019-02-16T11:22:46.722Z,70.00
2019-02-16T11:25:32.796Z,69.10
2019-02-16T11:28:19.617Z,68.60
2019-02-16T11:31:06.224Z,69.00
2019-02-16T11:33:54.459Z,68.60
2019-02-16T11:36:24.500Z,68.20
2019-02-16T11:38:57.340Z,68.60
2019-02-16T11:41:42.604Z,66.90
2019-02-16T11:44:12.645Z,66.60
2019-02-16T11:46:48.528Z,67.10
2019-02-16T11:49:21.306Z,65.60
2019-02-16T11:51:53.821Z,66.30
2019-02-16T11:54:23.174Z,66.20
2019-02-16T11:56:53.205Z,65.40
2019-02-16T11:59:41.255Z,66.70
2019-02-16T12:02:20.462Z,65.40
2019-02-16T12:04:50.599Z,64.90
2019-02-16T12:07:23.496Z,65.20
2019-02-16T12:09:53.560Z,65.30
2019-02-16T12:12:26.309Z,64.50
2019-02-16T12:15:04.936Z,63.90
2019-02-16T12:17:44.045Z,63.70
2019-02-16T12:20:14.120Z,64.50
2019-02-16T12:25:58.139Z,64.40
2019-02-16T12:28:44.518Z,63.70
2019-02-16T12:31:14.568Z,63.70
2019-02-16T12:33:53.577Z,62.90
2019-02-16T12:36:29.092Z,62.10
2019-02-16T12:39:04.923Z,62.40
2019-02-16T12:41:39.873Z,62.20
2019-02-16T12:44:25.909Z,61.10
2019-02-16T12:47:01.928Z,60.90
2019-02-16T12:49:40.989Z,60.00
2019-02-16T12:52:22.988Z,61.10
2019-02-16T12:54:55.469Z,61.60
2019-02-16T12:57:25.532Z,60.10
2019-02-16T13:00:12.062Z,60.20
2019-02-16T13:02:44.937Z,60.50
2019-02-16T13:05:17.540Z,58.20
2019-02-16T13:07:56.825Z,57.80
2019-02-16T13:10:26.857Z,57.20
2019-02-16T13:13:00.642Z,56.40
2019-02-16T13:15:30.712Z,55.50
2019-02-16T13:18:15.980Z,54.00
2019-02-16T13:20:58.004Z,53.90
2019-02-16T13:23:33.565Z,53.40
2019-02-16T13:26:06.553Z,54.30
2019-02-16T13:28:54.928Z,54.50
2019-02-16T13:31:33.739Z,54.50
2019-02-16T13:34:12.748Z,54.80
2019-02-16T13:36:45.564Z,55.10
2019-02-16T13:39:18.513Z,56.10
2019-02-16T13:41:48.547Z,56.30
2019-02-16T13:44:21.153Z,56.40
2019-02-16T13:46:51.188Z,56.90
2019-02-16T13:49:21.242Z,57.50
2019-02-16T13:51:51.277Z,58.00
2019-02-16T13:54:24.108Z,58.90
2019-02-16T13:57:06.424Z,59.00
2019-02-16T13:59:36.463Z,59.70
2019-02-16T14:02:08.127Z,59.80
2019-02-16T14:04:38.207Z,60.40
2019-02-16T14:07:08.251Z,61.20
2019-02-16T14:09:50.300Z,62.40
2019-02-16T14:12:23.249Z,63.20
2019-02-16T14:14:59.222Z,63.70
2019-02-16T14:17:29.232Z,64.20
2019-02-16T14:19:57.631Z,65.10
2019-02-16T14:22:26.026Z,65.70
2019-02-16T14:24:56.067Z,66.20
2019-02-16T14:27:24.468Z,67.20
2019-02-16T14:29:52.896Z,67.20
2019-02-16T14:32:21.319Z,67.90
2019-02-16T14:34:49.724Z,68.30
2019-02-16T14:37:22.918Z,68.80
2019-02-16T14:39:51.316Z,69.00
2019-02-16T14:42:19.760Z,69.40
2019-02-16T14:44:49.404Z,70.40
2019-02-16T14:47:18.013Z,70.90
2019-02-16T14:49:46.419Z,70.50
2019-02-16T14:52:14.876Z,70.60
2019-02-16T14:54:43.303Z,71.80
2019-02-16T14:57:11.698Z,72.00
2019-02-16T14:59:40.164Z,72.40
2019-02-16T15:02:08.572Z,72.40
2019-02-16T15:04:36.965Z,72.60
2019-02-16T15:07:05.432Z,73.30
2019-02-16T15:09:33.820Z,73.40
2019-02-16T15:12:02.289Z,73.70
2019-02-16T15:14:30.693Z,75.00
2019-02-16T15:16:59.093Z,74.20
2019-02-16T15:19:27.718Z,74.10
2019-02-16T15:21:56.156Z,74.70
2019-02-16T15:24:24.541Z,75.30
2019-02-16T15:26:52.933Z,76.00
2019-02-16T15:29:22.245Z,76.60
2019-02-16T15:31:50.906Z,76.90
2019-02-16T15:34:19.356Z,77.20
2019-02-16T15:36:47.748Z,78.00
2019-02-16T15:39:16.259Z,79.00
2019-02-16T15:41:44.727Z,78.90
2019-02-16T15:44:13.402Z,79.40
2019-02-16T15:46:41.796Z,80.50
2019-02-16T15:49:10.315Z,79.90
2019-02-16T15:51:38.720Z,78.80
2019-02-16T15:54:07.151Z,78.70
2019-02-16T15:56:35.653Z,79.10
2019-02-16T15:59:04.165Z,79.00
2019-02-16T16:01:33.669Z,79.60
2019-02-16T16:04:02.137Z,80.10
2019-02-16T16:06:30.630Z,80.30
2019-02-16T16:09:00.668Z,80.30
2019-02-16T16:11:30.781Z,81.30
2019-02-16T16:14:06.731Z,81.60
2019-02-16T16:16:42.641Z,81.40
2019-02-16T16:19:12.727Z,81.60
2019-02-16T16:21:42.761Z,81.80
2019-02-16T16:24:15.291Z,82.00
2019-02-16T16:27:01.120Z,82.60
2019-02-16T16:29:43.416Z,82.80
2019-02-16T16:32:17.697Z,83.00
2019-02-16T16:34:57.129Z,83.60
2019-02-16T16:37:33.070Z,83.90
2019-02-16T16:40:03.185Z,83.70
2019-02-16T16:42:49.659Z,83.30
2019-02-16T16:45:19.699Z,83.60
2019-02-16T16:48:06.222Z,84.50
2019-02-16T16:50:52.443Z,85.10
2019-02-16T16:53:22.537Z,84.30
2019-02-16T16:56:10.832Z,84.40
2019-02-16T16:58:49.515Z,84.50
2019-02-16T17:01:31.996Z,84.70
2019-02-16T17:04:07.745Z,84.40
2019-02-16T17:06:54.054Z,84.30
2019-02-16T17:09:30.294Z,84.50
2019-02-16T17:12:03.334Z,84.40
2019-02-16T17:14:36.443Z,85.00
2019-02-16T17:17:06.567Z,84.80
2019-02-16T17:19:53.502Z,84.80
2019-02-16T17:22:26.283Z,85.20
2019-02-16T17:24:59.436Z,85.00
2019-02-16T17:27:32.634Z,85.60
2019-02-16T17:30:02.668Z,86.00
2019-02-16T17:32:49.087Z,85.40
2019-02-16T17:35:25.582Z,85.20
2019-02-16T17:37:58.512Z,85.00
2019-02-16T17:40:28.698Z,85.40
2019-02-16T17:42:58.945Z,84.70
2019-02-16T17:45:35.127Z,85.30
2019-02-16T17:48:05.317Z,84.70
2019-02-16T17:50:44.203Z,84.90
2019-02-16T17:53:20.326Z,85.40
2019-02-16T17:55:53.118Z,85.40
2019-02-16T17:58:25.926Z,86.10
2019-02-16T18:00:55.984Z,86.80
2019-02-16T18:03:26.024Z,87.10
2019-02-16T18:05:56.306Z,87.10
2019-02-16T18:08:28.897Z,87.60
2019-02-16T18:10:58.943Z,86.70
2019-02-16T18:13:29.084Z,86.40
2019-02-16T18:15:59.142Z,86.60
2019-02-16T18:18:30.773Z,86.70
2019-02-16T18:21:04.028Z,87.20
2019-02-16T18:23:34.116Z,87.60
2019-02-16T18:26:04.227Z,88.10
2019-02-16T18:28:57.082Z,87.80
2019-02-16T18:31:30.021Z,87.40
2019-02-16T18:34:16.562Z,87.50
2019-02-16T18:36:49.550Z,88.10
2019-02-16T18:39:34.484Z,87.60
2019-02-16T18:42:20.397Z,87.60
2019-02-16T18:44:53.362Z,86.80
2019-02-16T18:47:26.327Z,86.90
2019-02-16T18:49:56.531Z,86.70
2019-02-16T18:52:29.550Z,86.50
2019-02-16T18:55:10.622Z,86.20
2019-02-16T18:57:34.076Z,85.00
2019-02-16T19:00:04.211Z,85.00
2019-02-16T19:02:37.083Z,84.70
2019-02-16T19:05:24.406Z,84.70
2019-02-16T19:08:09.459Z,84.50
2019-02-16T19:10:51.590Z,84.40
2019-02-16T19:13:30.976Z,83.80
2019-02-16T19:16:09.640Z,83.50
2019-02-16T19:18:39.718Z,83.20
2019-02-16T19:21:15.786Z,82.40
2019-02-16T19:23:48.642Z,82.00
2019-02-16T19:26:24.464Z,81.90
2019-02-16T19:28:57.466Z,82.00
2019-02-16T19:31:33.109Z,82.60
2019-02-16T19:34:19.562Z,82.90
2019-02-16T19:37:01.803Z,82.60
2019-02-16T19:39:44.083Z,82.10
2019-02-16T19:42:20.745Z,82.20
2019-02-16T19:45:02.871Z,82.70
2019-02-16T19:47:35.547Z,82.90
2019-02-16T19:50:06.794Z,83.30
2019-02-16T19:55:59.174Z,83.40
2019-02-16T19:58:38.426Z,83.40
2019-02-16T20:01:21.530Z,83.40
2019-02-16T20:03:51.698Z,84.30
2019-02-16T20:06:21.739Z,85.10
2019-02-16T20:08:55.000Z,84.80
2019-02-16T20:14:07.061Z,84.90
2019-02-16T20:16:37.387Z,85.70
2019-02-16T20:19:07.466Z,85.80
2019-02-16T20:21:37.825Z,86.10
2019-02-16T20:24:10.742Z,86.00
2019-02-16T20:26:43.058Z,86.10
2019-02-16T20:29:13.990Z,86.20
2019-02-16T20:31:50.762Z,85.90
2019-02-16T20:34:20.847Z,85.40
2019-02-16T20:37:04.498Z,85.90
2019-02-16T20:39:34.621Z,85.50
2019-02-16T20:42:04.757Z,85.30
2019-02-16T20:44:37.287Z,84.80
2019-02-16T20:47:06.901Z,84.30
2019-02-16T20:49:42.743Z,84.70
2019-02-16T20:52:12.923Z,84.70
2019-02-16T20:54:43.025Z,84.90
2019-02-16T20:57:22.273Z,84.90
2019-02-16T20:59:52.370Z,84.90
2019-02-16T21:02:25.086Z,85.60
2019-02-16T21:04:58.364Z,85.90
2019-02-16T21:07:31.151Z,85.60
2019-02-16T21:10:23.644Z,86.30
2019-02-16T21:12:53.769Z,86.60
2019-02-16T21:15:25.475Z,86.50
2019-02-16T21:17:57.413Z,86.80
2019-02-16T21:20:43.733Z,87.20
2019-02-16T21:23:31.909Z,87.10
2019-02-16T21:26:13.906Z,87.60
2019-02-16T21:28:56.916Z,88.00
2019-02-16T21:31:29.456Z,88.50
2019-02-16T21:34:04.980Z,88.80
2019-02-16T21:36:38.113Z,89.20
2019-02-16T21:39:30.789Z,89.50
2019-02-16T21:42:09.964Z,89.60
2019-02-16T21:44:56.652Z,89.00
2019-02-16T21:47:29.404Z,89.00
2019-02-16T21:50:04.978Z,88.90
2019-02-16T21:52:43.851Z,88.60
2019-02-16T21:55:13.964Z,88.40
2019-02-16T21:57:50.144Z,88.40
2019-02-16T22:00:22.860Z,88.40
2019-02-16T22:03:18.236Z,88.50
2019-02-16T22:06:05.844Z,88.20
2019-02-16T22:08:38.910Z,88.30
2019-02-16T22:11:11.886Z,88.20
2019-02-16T22:13:40.348Z,88.30
2019-02-16T22:16:08.748Z,88.10
2019-02-16T22:18:37.140Z,88.60
2019-02-16T22:21:05.715Z,88.60
2019-02-16T22:23:34.105Z,88.60
2019-02-16T22:26:02.497Z,88.60
2019-02-16T22:28:31.348Z,88.80
2019-02-16T22:30:59.859Z,89.40
2019-02-16T22:33:28.355Z,89.80
2019-02-16T22:35:56.747Z,89.80
2019-02-16T22:38:25.144Z,90.10
2019-02-16T22:40:53.538Z,90.10
2019-02-16T22:43:21.932Z,90.30
2019-02-16T22:45:50.360Z,90.50
2019-02-16T22:48:18.829Z,90.50
2019-02-16T22:50:47.220Z,90.60
2019-02-16T22:53:15.613Z,90.60
2019-02-16T22:55:44.009Z,90.60
2019-02-16T22:58:12.502Z,90.60
2019-02-16T23:00:42.535Z,90.70
2019-02-16T23:03:11.171Z,90.80
2019-02-16T23:05:39.718Z,90.80
2019-02-16T23:08:08.112Z,90.80
2019-02-16T23:10:36.535Z,90.80
2019-02-16T23:13:04.992Z,90.90
2019-02-16T23:15:33.387Z,91.00
2019-02-16T23:18:01.789Z,90.90
2019-02-16T23:20:30.188Z,91.00
2019-02-16T23:22:58.674Z,91.00
2019-02-16T23:25:27.064Z,91.10
2019-02-16T23:27:55.466Z,91.30
2019-02-16T23:30:23.934Z,91.50
2019-02-16T23:32:52.328Z,91.50
2019-02-16T23:35:20.767Z,91.60
2019-02-16T23:37:49.174Z,91.80
2019-02-16T23:40:17.556Z,92.00
2019-02-16T23:42:45.976Z,92.30
2019-02-16T23:45:14.373Z,92.50
2019-02-16T23:47:42.797Z,92.80
2019-02-16T23:50:11.370Z,92.90
2019-02-16T23:52:39.768Z,93.30
2019-02-16T23:55:11.396Z,93.20
2019-02-16T23:57:39.860Z,93.10
